General Aviation Weather

Text Reports

Enter one or more of the following location identifiers separated by a space:

Zip Code, Four-Character ICAO or Three-Character IATA airport codes.

METAR - Aviation Routine Weather Report
KAEJ - Buena Vista, Colorado
Updated at 6:35 AM GMT on April 02, 2015 (12:35 AM MDT):
METAR KAEJ 020635Z AUTO 18003G15KT 10SM CLR 03/M03 A2995 RMK AO2 T00311032
TAF - Terminal Area Forecast
KAEJ - Buena Vista, Colorado
Updated at 6:35 AM GMT on April 02, 2015 (12:35 AM MDT):
No TAF is currently available for this location.
Decoded:
No decoded TAF is available.
PIREP - Pilot Weather Report
KAEJ - Buena Vista, Colorado
Updated at 6:35 AM GMT on April 02, 2015 (12:35 AM MDT):
No PIREP is currently available for this location.
AIRMET - Airmens Meteorological Information
KAEJ - Buena Vista, Colorado
Updated at 6:35 AM GMT on April 02, 2015 (12:35 AM MDT):
No AIRMET is currently available for this location.
SIGMET - Significant Meteorological Information
KAEJ - Buena Vista, Colorado
Updated at 6:35 AM GMT on April 02, 2015 (12:35 AM MDT):
No SIGMET is currently available for this location.
NOTAM - Notice to Airmen
KAEJ - Buena Vista, Colorado
Updated at 6:35 AM GMT on April 02, 2015 (12:35 AM MDT):
No NOTAM is currently available for this location.
Forecast Area
KAEJ - Buena Vista, Colorado
Updated at 6:35 AM GMT on April 02, 2015 (12:35 AM MDT):
No NOTAM is currently available for this location.
Aviation Weather Maps